createdAt,value
2023-04-14T00:00:54.841Z,41.58
2023-04-14T00:01:55.700Z,41.60
2023-04-14T00:02:55.849Z,41.61
2023-04-14T00:03:54.825Z,41.58
2023-04-14T00:04:55.787Z,41.63
2023-04-14T00:05:54.687Z,41.61
2023-04-14T00:06:54.692Z,41.70
2023-04-14T00:07:55.714Z,41.69
2023-04-14T00:08:54.697Z,41.66
2023-04-14T00:09:54.745Z,41.63
2023-04-14T00:10:55.722Z,41.64
2023-04-14T00:11:55.734Z,41.61
2023-04-14T00:12:55.769Z,41.64
2023-04-14T00:13:54.754Z,41.61
2023-04-14T00:14:55.749Z,41.64
2023-04-14T00:15:54.777Z,41.60
2023-04-14T00:16:54.850Z,41.60
2023-04-14T00:17:54.796Z,41.60
2023-04-14T00:18:54.768Z,41.69
2023-04-14T00:19:55.808Z,41.66
2023-04-14T00:20:55.793Z,41.67
2023-04-14T00:21:55.799Z,41.62
2023-04-14T00:22:55.809Z,41.66
2023-04-14T00:23:55.800Z,41.65
2023-04-14T00:24:54.813Z,41.69
2023-04-14T00:25:54.845Z,41.62
2023-04-14T00:26:54.812Z,41.58
2023-04-14T00:27:54.839Z,41.62
2023-04-14T00:28:55.844Z,41.66
2023-04-14T00:29:54.844Z,41.67
2023-04-14T00:30:54.863Z,41.59
2023-04-14T00:31:54.922Z,41.65
2023-04-14T00:32:55.922Z,41.63
2023-04-14T00:33:55.893Z,41.62
2023-04-14T00:34:55.888Z,41.67
2023-04-14T00:35:55.936Z,41.70
2023-04-14T00:36:56.025Z,41.66
2023-04-14T00:37:55.944Z,41.68
2023-04-14T00:38:55.935Z,41.65
2023-04-14T00:39:55.947Z,41.71
2023-04-14T00:40:55.961Z,41.72
2023-04-14T00:41:55.973Z,41.66
2023-04-14T00:42:54.992Z,41.67
2023-04-14T00:43:55.999Z,41.64
2023-04-14T00:44:56.016Z,41.64
2023-04-14T00:45:56.031Z,41.62
2023-04-14T00:46:55.002Z,41.77
2023-04-14T00:47:55.073Z,41.71
2023-04-14T00:48:55.021Z,41.66
2023-04-14T00:49:56.056Z,41.68
2023-04-14T00:50:56.102Z,41.68
2023-04-14T00:51:56.095Z,41.60
2023-04-14T00:52:56.108Z,41.66
2023-04-14T00:53:55.090Z,41.59
2023-04-14T00:54:55.091Z,41.61
2023-04-14T00:55:55.096Z,41.55
2023-04-14T00:56:56.121Z,41.54
2023-04-14T00:57:56.135Z,41.55
2023-04-14T00:58:55.105Z,41.56
2023-04-14T00:59:55.119Z,41.53
2023-04-14T01:00:55.102Z,41.62
2023-04-14T01:01:55.221Z,41.62
2023-04-14T01:02:56.268Z,41.60
2023-04-14T01:03:56.287Z,41.60
2023-04-14T01:04:56.262Z,41.60
2023-04-14T01:05:56.140Z,41.64
2023-04-14T01:06:56.120Z,41.60
2023-04-14T01:07:56.178Z,41.58
2023-04-14T01:08:55.140Z,41.57
2023-04-14T01:09:56.116Z,41.55
2023-04-14T01:10:55.115Z,41.52
2023-04-14T01:11:55.105Z,41.47
2023-04-14T01:12:56.105Z,41.41
2023-04-14T01:13:55.120Z,41.40
2023-04-14T01:14:55.102Z,41.39
2023-04-14T01:15:55.128Z,41.35
2023-04-14T01:16:55.112Z,41.31
2023-04-14T01:17:56.227Z,41.26
2023-04-14T01:18:56.184Z,41.22
2023-04-14T01:19:56.257Z,41.20
2023-04-14T01:20:56.335Z,41.16
2023-04-14T01:21:56.371Z,41.12
2023-04-14T01:22:55.440Z,41.07
2023-04-14T01:23:56.505Z,41.01
2023-04-14T01:24:56.534Z,40.96
2023-04-14T01:25:55.595Z,40.89
2023-04-14T01:26:55.661Z,40.91
2023-04-14T01:27:56.693Z,40.84
2023-04-14T01:28:56.742Z,40.85
2023-04-14T01:29:56.785Z,40.79
2023-04-14T01:30:55.817Z,40.79
2023-04-14T01:31:56.914Z,40.72
2023-04-14T01:32:55.980Z,40.75
2023-04-14T01:33:56.970Z,40.68
2023-04-14T01:34:56.989Z,40.66
2023-04-14T01:35:57.018Z,40.62
2023-04-14T01:36:57.079Z,40.61
2023-04-14T01:37:56.130Z,40.57
2023-04-14T01:38:57.229Z,40.57
2023-04-14T01:39:57.186Z,40.54
2023-04-14T01:40:57.206Z,40.50
2023-04-14T01:41:56.216Z,40.46
2023-04-14T01:42:57.254Z,40.41
2023-04-14T01:43:56.310Z,40.40
2023-04-14T01:44:57.307Z,40.35
2023-04-14T01:45:57.423Z,40.32
2023-04-14T01:46:57.353Z,40.32
2023-04-14T01:47:57.442Z,40.32
2023-04-14T01:48:57.457Z,40.26
2023-04-14T01:49:57.455Z,40.25
2023-04-14T01:50:56.451Z,40.19
2023-04-14T01:51:56.461Z,40.17
2023-04-14T01:52:57.502Z,40.14
2023-04-14T01:53:56.517Z,40.11
2023-04-14T01:54:57.531Z,40.08
2023-04-14T01:55:57.587Z,40.04
2023-04-14T01:56:56.552Z,40.03
2023-04-14T01:57:56.569Z,39.99
2023-04-14T01:58:57.628Z,40.01
2023-04-14T01:59:57.587Z,39.96
2023-04-14T02:00:57.630Z,39.91
2023-04-14T02:01:57.663Z,39.91
2023-04-14T02:02:56.823Z,39.86
2023-04-14T02:03:57.698Z,39.91
2023-04-14T02:04:57.615Z,39.86
2023-04-14T02:05:56.637Z,39.81
2023-04-14T02:06:56.643Z,39.81
2023-04-14T02:07:57.692Z,39.76
2023-04-14T02:08:56.659Z,39.77
2023-04-14T02:09:57.659Z,39.74
2023-04-14T02:10:57.660Z,39.72
2023-04-14T02:11:57.671Z,39.74
2023-04-14T02:12:56.657Z,39.72
2023-04-14T02:13:56.701Z,39.66
2023-04-14T02:14:57.655Z,39.66
2023-04-14T02:15:56.706Z,39.68
2023-04-14T02:16:56.775Z,39.62
2023-04-14T02:17:57.727Z,39.63
2023-04-14T02:18:57.712Z,39.60
2023-04-14T02:19:57.694Z,39.61
2023-04-14T02:20:56.687Z,39.60
2023-04-14T02:21:56.711Z,39.55
2023-04-14T02:22:57.688Z,39.57
2023-04-14T02:23:57.701Z,39.49
2023-04-14T02:24:56.696Z,39.52
2023-04-14T02:25:57.715Z,39.47
2023-04-14T02:26:57.702Z,39.52
2023-04-14T02:27:57.772Z,39.48
2023-04-14T02:28:57.720Z,39.44
2023-04-14T02:29:56.664Z,39.45
2023-04-14T02:30:57.730Z,39.45
2023-04-14T02:31:57.699Z,39.42
2023-04-14T02:32:57.688Z,39.38
2023-04-14T02:33:56.687Z,39.42
2023-04-14T02:34:57.665Z,39.38
2023-04-14T02:35:57.649Z,39.37
2023-04-14T02:36:56.663Z,39.37
2023-04-14T02:37:56.663Z,39.37
2023-04-14T02:38:56.643Z,39.34
2023-04-14T02:39:57.629Z,39.37
2023-04-14T02:40:56.631Z,39.34
2023-04-14T02:41:57.628Z,39.32
2023-04-14T02:42:56.660Z,39.31
2023-04-14T02:43:57.677Z,39.31
2023-04-14T02:44:56.711Z,39.28
2023-04-14T02:45:56.729Z,39.30
2023-04-14T02:46:57.755Z,39.29
2023-04-14T02:47:57.845Z,39.27
2023-04-14T02:48:57.898Z,39.26
2023-04-14T02:49:56.814Z,39.29
2023-04-14T02:50:57.766Z,39.26
2023-04-14T02:51:57.830Z,39.27
2023-04-14T02:52:57.899Z,39.24
2023-04-14T02:53:57.894Z,39.23
2023-04-14T02:54:56.882Z,39.23
2023-04-14T02:55:56.898Z,39.20
2023-04-14T02:56:57.897Z,39.22
2023-04-14T02:57:57.919Z,39.20
2023-04-14T02:58:58.167Z,39.21
2023-04-14T02:59:57.992Z,39.20
2023-04-14T03:00:56.976Z,39.25
2023-04-14T03:01:58.044Z,39.19
2023-04-14T03:02:57.020Z,39.19
2023-04-14T03:03:57.029Z,39.18
2023-04-14T03:04:56.958Z,39.16
2023-04-14T03:05:57.913Z,39.20
2023-04-14T03:06:57.940Z,39.18
2023-04-14T03:07:57.907Z,39.16
2023-04-14T03:08:58.200Z,39.14
2023-04-14T03:09:57.909Z,39.12
2023-04-14T03:10:57.914Z,39.15
2023-04-14T03:11:57.892Z,39.16
2023-04-14T03:12:57.916Z,39.17
2023-04-14T03:13:56.859Z,39.19
2023-04-14T03:14:57.871Z,39.18
2023-04-14T03:15:56.890Z,39.16
2023-04-14T03:16:56.853Z,39.14
2023-04-14T03:17:57.919Z,39.14
2023-04-14T03:18:57.984Z,39.14
2023-04-14T03:19:57.819Z,39.13
2023-04-14T03:20:56.816Z,39.14
2023-04-14T03:21:57.815Z,39.13
2023-04-14T03:22:57.808Z,39.14
2023-04-14T03:23:57.802Z,39.11
2023-04-14T03:24:57.865Z,39.13
2023-04-14T03:25:57.804Z,39.14
2023-04-14T03:26:57.807Z,39.09
2023-04-14T03:27:57.769Z,39.10
2023-04-14T03:28:57.885Z,39.13
2023-04-14T03:29:57.797Z,39.11
2023-04-14T03:30:57.750Z,39.11
2023-04-14T03:31:57.770Z,39.09
2023-04-14T03:32:56.754Z,39.08
2023-04-14T03:33:57.730Z,39.10
2023-04-14T03:34:57.710Z,39.06
2023-04-14T03:35:57.710Z,39.11
2023-04-14T03:36:57.683Z,39.06
2023-04-14T03:37:56.684Z,39.08
2023-04-14T03:38:58.049Z,39.06
2023-04-14T03:39:57.679Z,39.08
2023-04-14T03:40:57.672Z,39.06
2023-04-14T03:41:57.683Z,39.10
2023-04-14T03:42:57.649Z,39.05
2023-04-14T03:43:56.651Z,39.06
2023-04-14T03:44:56.655Z,39.06
2023-04-14T03:45:57.620Z,39.06
2023-04-14T03:46:56.674Z,39.06
2023-04-14T03:47:57.829Z,39.07
2023-04-14T03:48:57.682Z,39.05
2023-04-14T03:49:56.677Z,39.05
2023-04-14T03:50:57.699Z,39.04
2023-04-14T03:51:56.700Z,39.03
2023-04-14T03:52:57.734Z,39.05
2023-04-14T03:53:58.046Z,39.02
2023-04-14T03:54:57.789Z,39.07
2023-04-14T03:55:57.801Z,39.08
2023-04-14T03:56:57.812Z,39.07
2023-04-14T03:57:56.817Z,39.05
2023-04-14T03:58:57.980Z,39.04
2023-04-14T03:59:57.847Z,39.06
2023-04-14T04:00:56.855Z,39.05
2023-04-14T04:01:57.967Z,39.05
2023-04-14T04:02:58.317Z,39.02
2023-04-14T04:03:57.182Z,39.05
2023-04-14T04:04:57.994Z,39.04
2023-04-14T04:05:57.974Z,39.03
2023-04-14T04:06:57.988Z,39.03
2023-04-14T04:07:58.007Z,39.06
2023-04-14T04:08:58.167Z,39.06
2023-04-14T04:09:58.077Z,39.05
2023-04-14T04:10:58.077Z,39.04
2023-04-14T04:11:57.130Z,39.04
2023-04-14T04:12:58.121Z,39.03
2023-04-14T04:13:57.158Z,39.00
2023-04-14T04:14:58.193Z,39.04
2023-04-14T04:15:58.216Z,39.04
2023-04-14T04:16:58.392Z,39.04
2023-04-14T04:17:58.299Z,39.00
2023-04-14T04:18:58.513Z,39.06
2023-04-14T04:19:58.258Z,39.04
2023-04-14T04:20:57.254Z,39.04
2023-04-14T04:21:58.257Z,39.05
2023-04-14T04:22:57.235Z,39.02
2023-04-14T04:23:57.258Z,39.04
2023-04-14T04:24:58.237Z,39.02
2023-04-14T04:25:58.221Z,39.07
2023-04-14T04:26:57.224Z,39.06
2023-04-14T04:27:58.222Z,39.03
2023-04-14T04:28:58.514Z,39.06
2023-04-14T04:29:57.242Z,39.05
2023-04-14T04:30:58.257Z,39.02
2023-04-14T04:31:58.242Z,39.00
2023-04-14T04:32:58.231Z,39.02
2023-04-14T04:33:57.223Z,39.02
2023-04-14T04:34:58.230Z,39.05
2023-04-14T04:35:58.256Z,39.03
2023-04-14T04:36:58.269Z,39.01
2023-04-14T04:37:58.250Z,39.03
2023-04-14T04:38:58.410Z,39.04
2023-04-14T04:39:58.265Z,39.02
2023-04-14T04:40:58.261Z,39.02
2023-04-14T04:41:58.249Z,39.00
2023-04-14T04:42:57.268Z,39.03
2023-04-14T04:43:58.242Z,39.02
2023-04-14T04:44:57.262Z,39.05
2023-04-14T04:45:58.350Z,39.05
2023-04-14T04:46:58.233Z,39.03
2023-04-14T04:47:58.261Z,39.01
2023-04-14T04:48:58.379Z,39.03
2023-04-14T04:49:57.248Z,39.03
2023-04-14T04:50:58.248Z,38.99
2023-04-14T04:51:57.280Z,39.02
2023-04-14T04:52:58.283Z,39.02
2023-04-14T04:53:57.272Z,39.02
2023-04-14T04:54:58.291Z,39.03
2023-04-14T04:55:58.247Z,39.04
2023-04-14T04:56:58.247Z,39.00
2023-04-14T04:57:58.240Z,38.99
2023-04-14T04:58:58.376Z,38.99
2023-04-14T04:59:57.255Z,39.00
2023-04-14T05:00:57.317Z,39.03
2023-04-14T05:01:58.300Z,39.01
2023-04-14T05:02:58.414Z,38.98
2023-04-14T05:03:58.264Z,38.96
2023-04-14T05:04:58.278Z,38.97
2023-04-14T05:05:58.256Z,39.00
2023-04-14T05:06:57.289Z,38.98
2023-04-14T05:07:58.258Z,38.97
2023-04-14T05:08:57.278Z,38.98
2023-04-14T05:09:57.274Z,38.99
2023-04-14T05:10:57.252Z,38.95
2023-04-14T05:11:57.240Z,38.98
2023-04-14T05:12:58.283Z,38.98
2023-04-14T05:13:57.211Z,38.97
2023-04-14T05:14:58.240Z,38.96
2023-04-14T05:15:57.278Z,38.97
2023-04-14T05:16:57.240Z,38.98
2023-04-14T05:17:57.269Z,38.97
2023-04-14T05:18:58.290Z,38.98
2023-04-14T05:19:57.250Z,38.99
2023-04-14T05:20:57.225Z,38.96
2023-04-14T05:21:58.186Z,38.96
2023-04-14T05:22:57.188Z,38.95
2023-04-14T05:23:57.212Z,38.97
2023-04-14T05:24:58.200Z,38.97
2023-04-14T05:26:11.202Z,38.93
2023-04-14T05:27:12.446Z,39.08
2023-04-14T05:27:58.206Z,39.04
2023-04-14T05:28:58.191Z,39.01
2023-04-14T05:29:58.162Z,39.07
2023-04-14T05:30:59.991Z,39.03
2023-04-14T05:31:57.125Z,39.21
2023-04-14T05:32:57.164Z,39.37
2023-04-14T05:33:57.208Z,39.68
2023-04-14T05:34:58.150Z,40.27
2023-04-14T05:35:58.105Z,40.49
2023-04-14T05:36:58.147Z,41.46
2023-04-14T05:37:57.077Z,41.27
2023-04-14T05:38:58.104Z,41.46
2023-04-14T05:39:58.139Z,40.93
2023-04-14T05:40:58.188Z,40.72
2023-04-14T05:41:58.078Z,40.87
2023-04-14T05:42:59.048Z,40.74
2023-04-14T05:43:58.050Z,40.61
2023-04-14T05:44:57.901Z,40.79
2023-04-14T05:45:57.068Z,40.90
2023-04-14T05:46:58.147Z,41.55
2023-04-14T05:47:58.045Z,41.62
2023-04-14T05:48:58.030Z,42.37
2023-04-14T05:49:58.003Z,42.24
2023-04-14T05:50:57.049Z,42.37
2023-04-14T05:51:56.992Z,42.79
2023-04-14T05:52:57.973Z,43.08
2023-04-14T05:53:57.040Z,43.12
2023-04-14T05:54:56.970Z,43.30
2023-04-14T05:55:58.085Z,43.42
2023-04-14T05:56:57.982Z,43.46
2023-04-14T05:57:56.968Z,44.06
2023-04-14T05:58:57.939Z,44.35
2023-04-14T05:59:58.461Z,44.58
2023-04-14T06:00:58.442Z,44.54
2023-04-14T06:01:58.009Z,44.89
2023-04-14T06:02:58.103Z,45.14
2023-04-14T06:03:57.154Z,45.19
2023-04-14T06:04:58.040Z,45.64
2023-04-14T06:05:57.947Z,45.80
2023-04-14T06:06:57.921Z,45.90
2023-04-14T06:07:57.962Z,45.84
2023-04-14T06:08:56.855Z,46.04
2023-04-14T06:09:57.880Z,46.17
2023-04-14T06:10:57.878Z,45.88
2023-04-14T06:11:57.859Z,45.47
2023-04-14T06:12:57.821Z,45.37
2023-04-14T06:13:57.878Z,44.92
2023-04-14T06:14:57.817Z,44.63
2023-04-14T06:15:56.874Z,44.05
2023-04-14T06:16:57.924Z,43.70
2023-04-14T06:17:56.891Z,43.30
2023-04-14T06:18:57.864Z,42.19
2023-04-14T06:19:56.793Z,43.61
2023-04-14T06:20:56.786Z,43.22
2023-04-14T06:21:57.821Z,43.17
2023-04-14T06:22:57.780Z,42.77
2023-04-14T06:23:56.843Z,42.77
2023-04-14T06:24:57.954Z,42.66
2023-04-14T06:25:58.113Z,42.56
2023-04-14T06:27:04.027Z,42.61
2023-04-14T06:27:56.971Z,42.40
2023-04-14T06:28:57.985Z,42.42
2023-04-14T06:29:56.987Z,42.31
2023-04-14T06:30:57.950Z,42.21
2023-04-14T06:31:56.999Z,42.35
2023-04-14T06:32:57.935Z,42.26
2023-04-14T06:33:57.914Z,42.40
2023-04-14T06:34:57.920Z,42.40
2023-04-14T06:35:57.906Z,42.45
2023-04-14T06:36:56.894Z,42.59
2023-04-14T06:37:56.901Z,42.72
2023-04-14T06:38:56.883Z,43.00
2023-04-14T06:39:57.880Z,43.10
2023-04-14T06:40:57.880Z,43.13
2023-04-14T06:41:56.885Z,43.51
2023-04-14T06:42:57.894Z,43.25
2023-04-14T06:43:57.881Z,43.64
2023-04-14T06:44:57.852Z,43.47
2023-04-14T06:45:56.932Z,43.43
2023-04-14T06:46:57.844Z,43.61
2023-04-14T06:47:57.881Z,43.77
2023-04-14T06:48:56.805Z,43.89
2023-04-14T06:49:57.806Z,44.34
2023-04-14T06:50:57.798Z,44.31
2023-04-14T06:51:57.786Z,44.16
2023-04-14T06:52:57.801Z,44.34
2023-04-14T06:53:57.796Z,44.46
2023-04-14T06:54:56.794Z,42.65
2023-04-14T06:55:57.915Z,43.25
2023-04-14T06:56:59.449Z,43.74
2023-04-14T06:57:56.754Z,43.67
2023-04-14T06:58:57.794Z,43.76
2023-04-14T06:59:56.760Z,43.91
2023-04-14T07:00:56.815Z,43.89
2023-04-14T07:01:56.908Z,43.91
2023-04-14T07:02:56.900Z,43.88
2023-04-14T07:03:56.722Z,43.96
2023-04-14T07:04:57.792Z,43.82
2023-04-14T07:05:57.701Z,43.88
2023-04-14T07:06:57.701Z,43.85
2023-04-14T07:07:56.697Z,43.78
2023-04-14T07:08:57.681Z,43.80
2023-04-14T07:09:56.732Z,43.80
2023-04-14T07:10:56.667Z,43.76
2023-04-14T07:11:57.665Z,43.71
2023-04-14T07:12:56.653Z,43.74
2023-04-14T07:13:57.641Z,43.75
2023-04-14T07:14:57.687Z,43.70
2023-04-14T07:15:57.701Z,43.68
2023-04-14T07:16:57.623Z,43.56
2023-04-14T07:17:59.944Z,43.57
2023-04-14T07:18:57.597Z,43.60
2023-04-14T07:19:57.592Z,43.62
2023-04-14T07:20:57.626Z,43.51
2023-04-14T07:21:57.582Z,43.46
2023-04-14T07:22:56.574Z,43.51
2023-04-14T07:23:56.564Z,43.60
2023-04-14T07:24:57.577Z,43.59
2023-04-14T07:25:56.568Z,43.59
2023-04-14T07:26:57.558Z,43.65
2023-04-14T07:28:03.467Z,43.34
2023-04-14T07:28:57.539Z,43.43
2023-04-14T07:29:56.533Z,43.43
2023-04-14T07:30:56.618Z,43.44
2023-04-14T07:31:57.509Z,43.42
2023-04-14T07:32:56.569Z,43.32
2023-04-14T07:33:57.513Z,43.38
2023-04-14T07:34:58.956Z,43.34
2023-04-14T07:36:56.478Z,43.22
2023-04-14T07:37:57.476Z,43.22
2023-04-14T07:38:57.484Z,43.20
2023-04-14T07:39:57.450Z,43.20
2023-04-14T07:40:57.453Z,43.28
2023-04-14T07:41:57.450Z,43.30
2023-04-14T07:42:57.443Z,43.19
2023-04-14T07:43:57.440Z,43.14
2023-04-14T07:44:56.440Z,43.11
2023-04-14T07:45:56.444Z,43.30
2023-04-14T07:46:57.931Z,42.90
2023-04-14T07:47:57.933Z,42.01
2023-04-14T07:48:57.398Z,42.20
2023-04-14T07:49:57.405Z,42.39
2023-04-14T07:50:57.381Z,42.47
2023-04-14T07:51:57.410Z,42.54
2023-04-14T07:52:57.379Z,42.60
2023-04-14T07:53:56.365Z,42.61
2023-04-14T07:54:57.348Z,42.59
2023-04-14T07:55:57.358Z,42.59
2023-04-14T07:56:57.406Z,42.68
2023-04-14T07:57:56.336Z,42.71
2023-04-14T07:58:57.334Z,42.75
2023-04-14T07:59:57.331Z,42.80
2023-04-14T08:00:57.373Z,42.78
2023-04-14T08:01:56.459Z,42.83
2023-04-14T08:02:56.459Z,42.84
2023-04-14T08:03:56.485Z,42.87
2023-04-14T08:04:57.310Z,42.92
2023-04-14T08:05:57.295Z,42.92
2023-04-14T08:06:56.290Z,42.94
2023-04-14T08:07:57.277Z,43.01
2023-04-14T08:08:57.273Z,42.97
2023-04-14T08:09:57.332Z,43.02
2023-04-14T08:10:57.395Z,43.05
2023-04-14T08:11:57.457Z,43.01
2023-04-14T08:12:57.505Z,43.04
2023-04-14T08:13:56.569Z,43.11
2023-04-14T08:14:57.633Z,43.10
2023-04-14T08:15:57.689Z,43.09
2023-04-14T08:16:56.738Z,43.11
2023-04-14T08:17:57.863Z,43.16
2023-04-14T08:18:58.273Z,43.12
2023-04-14T08:19:57.942Z,43.18
2023-04-14T08:20:56.992Z,43.15
2023-04-14T08:21:58.106Z,43.13
2023-04-14T08:22:58.111Z,43.12
2023-04-14T08:23:57.158Z,43.23
2023-04-14T08:24:58.217Z,43.20
2023-04-14T08:25:58.265Z,43.18
2023-04-14T08:26:58.308Z,43.20
2023-04-14T08:27:58.373Z,43.24
2023-04-14T08:28:57.413Z,43.23
2023-04-14T08:29:57.500Z,43.22
2023-04-14T08:30:57.525Z,43.20
2023-04-14T08:31:58.628Z,43.23
2023-04-14T08:32:58.993Z,43.22
2023-04-14T08:33:58.732Z,43.33
2023-04-14T08:35:38.791Z,43.27
2023-04-14T08:35:59.652Z,43.23
2023-04-14T08:36:57.773Z,43.34
2023-04-14T08:37:58.739Z,43.31
2023-04-14T08:38:58.885Z,43.34
2023-04-14T08:39:58.724Z,43.32
2023-04-14T08:40:58.709Z,43.35
2023-04-14T08:41:58.931Z,43.34
2023-04-14T08:42:57.708Z,43.66
2023-04-14T08:43:58.695Z,44.10
2023-04-14T08:44:58.689Z,44.34
2023-04-14T08:45:58.710Z,44.98
2023-04-14T08:46:58.682Z,45.25
2023-04-14T08:47:58.699Z,45.27
2023-04-14T08:48:57.655Z,45.44
2023-04-14T08:49:58.699Z,45.34
2023-04-14T08:50:58.655Z,45.69
2023-04-14T08:51:58.668Z,45.88
2023-04-14T08:52:58.661Z,45.93
2023-04-14T08:53:58.814Z,46.59
2023-04-14T08:54:57.625Z,46.38
2023-04-14T08:55:58.547Z,46.90
2023-04-14T08:56:57.943Z,46.97
2023-04-14T08:57:58.638Z,46.62
2023-04-14T08:58:57.635Z,46.57
2023-04-14T08:59:57.660Z,46.72
2023-04-14T09:00:58.857Z,46.83
2023-04-14T09:01:58.949Z,46.89
2023-04-14T09:02:57.960Z,46.88
2023-04-14T09:03:58.163Z,46.87
2023-04-14T09:04:59.065Z,46.89
2023-04-14T09:05:57.978Z,47.00
2023-04-14T09:06:58.038Z,46.98
2023-04-14T09:07:58.039Z,46.98
2023-04-14T09:08:59.101Z,47.01
2023-04-14T09:09:58.157Z,46.99
2023-04-14T09:10:58.193Z,47.09
2023-04-14T09:11:59.246Z,47.01
2023-04-14T09:12:59.334Z,46.97
2023-04-14T09:14:58.408Z,46.87
2023-04-14T09:15:58.471Z,46.97
2023-04-14T09:16:58.597Z,46.85
2023-04-14T09:17:59.694Z,46.89
2023-04-14T09:19:06.427Z,46.86
2023-04-14T09:20:35.806Z,46.89
2023-04-14T09:21:49.986Z,46.87
2023-04-14T09:21:59.632Z,46.87
2023-04-14T09:22:59.605Z,46.84
2023-04-14T09:23:59.819Z,46.73
2023-04-14T09:24:59.576Z,46.70
2023-04-14T09:25:59.586Z,46.69
2023-04-14T09:26:59.569Z,46.67
2023-04-14T09:27:59.572Z,46.71
2023-04-14T09:28:58.613Z,46.69
2023-04-14T09:29:59.559Z,46.59
2023-04-14T09:30:59.610Z,46.59
2023-04-14T09:31:59.543Z,46.52
2023-04-14T09:32:59.569Z,46.51
2023-04-14T09:33:58.615Z,46.55
2023-04-14T09:34:58.729Z,46.59
2023-04-14T09:35:59.511Z,46.52
2023-04-14T09:36:59.549Z,46.48
2023-04-14T09:37:59.553Z,46.48
2023-04-14T09:38:59.494Z,46.42
2023-04-14T09:39:59.482Z,46.32
2023-04-14T09:40:58.472Z,46.41
2023-04-14T09:41:58.518Z,46.41
2023-04-14T09:42:59.547Z,46.34
2023-04-14T09:43:58.627Z,46.35
2023-04-14T09:44:59.637Z,46.39
2023-04-14T09:45:59.695Z,46.36
2023-04-14T09:46:59.962Z,46.30
2023-04-14T09:47:59.766Z,46.29
2023-04-14T09:48:58.762Z,46.28
2023-04-14T09:49:59.846Z,46.23
2023-04-14T09:50:59.847Z,46.49
2023-04-14T09:51:59.955Z,46.24
2023-04-14T09:52:58.898Z,38.79
2023-04-14T09:54:00.343Z,36.94
2023-04-14T09:54:59.966Z,36.83
2023-04-14T09:55:59.962Z,37.75
2023-04-14T09:56:59.002Z,37.78
2023-04-14T09:58:00.043Z,37.85
2023-04-14T09:58:59.492Z,38.09
2023-04-14T09:59:59.094Z,37.94
2023-04-14T10:00:59.123Z,37.77
2023-04-14T10:01:59.235Z,37.76
2023-04-14T10:03:00.271Z,39.23
2023-04-14T10:03:59.221Z,40.30
2023-04-14T10:05:00.309Z,40.56
2023-04-14T10:05:59.283Z,40.70
2023-04-14T10:07:00.324Z,40.59
2023-04-14T10:08:00.323Z,40.66
2023-04-14T10:09:00.705Z,40.85
2023-04-14T10:10:00.454Z,40.87
2023-04-14T10:11:00.445Z,40.85
2023-04-14T10:11:59.447Z,40.94
2023-04-14T10:13:00.559Z,40.94
2023-04-14T10:14:00.544Z,40.94
2023-04-14T10:14:59.592Z,41.05
2023-04-14T10:16:00.698Z,41.06
2023-04-14T10:17:00.716Z,41.12
2023-04-14T10:18:00.774Z,41.20
2023-04-14T10:19:00.419Z,41.39
2023-04-14T10:20:00.824Z,41.49
2023-04-14T10:21:00.829Z,41.57
2023-04-14T10:21:59.851Z,41.61
2023-04-14T10:22:59.898Z,41.80
2023-04-14T10:24:00.898Z,41.85
2023-04-14T10:25:00.894Z,41.87
2023-04-14T10:26:00.910Z,42.09
2023-04-14T10:27:00.953Z,37.76
2023-04-14T10:27:59.965Z,36.79
2023-04-14T10:29:01.200Z,38.20
2023-04-14T10:30:00.062Z,39.25
2023-04-14T10:31:01.085Z,39.89
2023-04-14T10:32:00.306Z,40.29
2023-04-14T10:33:00.168Z,40.56
2023-04-14T10:34:00.165Z,40.87
2023-04-14T10:35:01.200Z,40.80
2023-04-14T10:36:00.218Z,40.86
2023-04-14T10:37:01.289Z,40.73
2023-04-14T10:38:00.268Z,40.74
2023-04-14T10:39:02.043Z,40.80
2023-04-14T10:40:00.387Z,40.90
2023-04-14T10:41:01.422Z,40.89
2023-04-14T10:42:01.539Z,40.94
2023-04-14T10:43:00.528Z,41.02
2023-04-14T10:44:01.554Z,41.10
2023-04-14T10:45:00.616Z,41.29
2023-04-14T10:46:01.677Z,41.29
2023-04-14T10:47:00.764Z,41.42
2023-04-14T10:48:00.828Z,41.47
2023-04-14T10:49:01.142Z,41.50
2023-04-14T10:50:01.893Z,41.51
2023-04-14T10:51:01.937Z,41.51
2023-04-14T10:52:02.066Z,41.53
2023-04-14T10:53:01.061Z,41.42
2023-04-14T10:54:01.095Z,41.41
2023-04-14T10:55:01.330Z,41.54
2023-04-14T10:56:01.187Z,41.65
2023-04-14T10:57:02.270Z,41.71
2023-04-14T10:58:02.331Z,41.59
2023-04-14T10:59:01.532Z,41.39
2023-04-14T11:00:02.406Z,41.59
2023-04-14T11:01:02.500Z,41.59
2023-04-14T11:02:02.638Z,41.59
2023-04-14T11:03:01.784Z,41.43
2023-04-14T11:04:01.865Z,41.39
2023-04-14T11:05:02.698Z,41.25
2023-04-14T11:06:02.743Z,41.19
2023-04-14T11:07:02.811Z,41.22
2023-04-14T11:08:03.421Z,41.40
2023-04-14T11:09:03.150Z,41.41
2023-04-14T11:10:02.986Z,41.47
2023-04-14T11:11:03.045Z,41.51
2023-04-14T11:12:03.100Z,41.50
2023-04-14T11:13:03.159Z,41.42
2023-04-14T11:14:03.244Z,41.50
2023-04-14T11:15:02.269Z,41.58
2023-04-14T11:16:02.317Z,41.59
2023-04-14T11:17:04.628Z,41.64
2023-04-14T11:18:03.533Z,41.63
2023-04-14T11:19:03.688Z,41.66
2023-04-14T11:20:03.620Z,41.65
2023-04-14T11:21:03.670Z,41.66
2023-04-14T11:22:03.756Z,41.73
2023-04-14T11:23:03.814Z,41.82
2023-04-14T11:24:02.865Z,41.85
2023-04-14T11:25:03.925Z,41.98
2023-04-14T11:26:03.989Z,41.99
2023-04-14T11:27:03.043Z,42.05
2023-04-14T11:28:04.112Z,42.10
2023-04-14T11:29:04.161Z,42.12
2023-04-14T11:30:03.233Z,42.14
2023-04-14T11:31:04.285Z,42.14
2023-04-14T11:32:03.445Z,42.11
2023-04-14T11:33:04.409Z,42.11
2023-04-14T11:34:04.470Z,42.11
2023-04-14T11:35:04.516Z,42.10
2023-04-14T11:36:04.573Z,42.21
2023-04-14T11:37:05.012Z,42.24
2023-04-14T11:38:04.714Z,42.27
2023-04-14T11:39:04.764Z,42.30
2023-04-14T11:40:04.812Z,42.35
2023-04-14T11:41:04.891Z,42.38
2023-04-14T11:42:05.007Z,42.40
2023-04-14T11:43:05.002Z,42.40
2023-04-14T11:44:05.068Z,42.32
2023-04-14T11:45:05.166Z,42.31
2023-04-14T11:46:04.188Z,42.30
2023-04-14T11:47:04.238Z,42.28
2023-04-14T11:48:05.326Z,42.26
2023-04-14T11:49:05.342Z,42.26
2023-04-14T11:50:04.408Z,42.30
2023-04-14T11:51:04.463Z,42.30
2023-04-14T11:52:04.523Z,42.34
2023-04-14T11:53:05.588Z,42.33
2023-04-14T11:54:05.692Z,42.50
2023-04-14T11:55:05.672Z,42.55
2023-04-14T11:56:05.739Z,42.54
2023-04-14T11:57:04.824Z,42.57
2023-04-14T11:58:05.867Z,42.51
2023-04-14T11:59:05.058Z,42.55
2023-04-14T12:00:04.971Z,42.49
2023-04-14T12:01:06.072Z,42.46
2023-04-14T12:02:05.114Z,42.46
2023-04-14T12:03:06.255Z,42.38
2023-04-14T12:04:06.442Z,42.40
2023-04-14T12:05:06.480Z,42.50
2023-04-14T12:06:05.312Z,42.41
2023-04-14T12:07:06.370Z,42.50
2023-04-14T12:08:05.444Z,42.55
2023-04-14T12:09:06.496Z,42.55
2023-04-14T12:10:05.558Z,42.66
2023-04-14T12:11:05.615Z,42.74
2023-04-14T12:12:05.667Z,42.72
2023-04-14T12:13:06.709Z,42.77
2023-04-14T12:14:06.785Z,42.75
2023-04-14T12:15:06.817Z,42.91
2023-04-14T12:16:06.920Z,42.86
2023-04-14T12:17:05.935Z,42.84
2023-04-14T12:18:05.959Z,42.82
2023-04-14T12:19:06.009Z,42.87
2023-04-14T12:20:06.048Z,42.87
2023-04-14T12:21:07.502Z,42.84
2023-04-14T12:22:07.070Z,42.92
2023-04-14T12:23:07.074Z,42.92
2023-04-14T12:24:07.064Z,42.97
2023-04-14T12:25:06.042Z,43.08
2023-04-14T12:26:06.042Z,43.07
2023-04-14T12:27:07.037Z,43.11
2023-04-14T12:28:06.071Z,43.13
2023-04-14T12:29:06.019Z,43.18
2023-04-14T12:30:08.043Z,43.21
2023-04-14T12:31:06.109Z,43.31
2023-04-14T12:32:06.067Z,43.28
2023-04-14T12:33:06.021Z,43.25
2023-04-14T12:34:06.994Z,43.24
2023-04-14T12:35:06.978Z,43.23
2023-04-14T12:36:06.979Z,43.19
2023-04-14T12:37:05.973Z,43.18
2023-04-14T12:38:05.961Z,43.18
2023-04-14T12:39:06.989Z,43.23
2023-04-14T12:40:07.094Z,43.22
2023-04-14T12:41:07.107Z,43.22
2023-04-14T12:42:06.176Z,43.21
2023-04-14T12:43:07.244Z,43.22
2023-04-14T12:44:07.308Z,43.21
2023-04-14T12:45:07.362Z,43.23
2023-04-14T12:46:06.430Z,43.18
2023-04-14T12:47:06.514Z,43.15
2023-04-14T12:48:06.591Z,43.20
2023-04-14T12:49:07.593Z,43.19
2023-04-14T12:50:06.633Z,43.16
2023-04-14T12:51:07.702Z,43.17
2023-04-14T12:52:07.773Z,43.17
2023-04-14T12:53:06.807Z,43.17
2023-04-14T12:54:06.867Z,43.19
2023-04-14T12:55:07.929Z,43.19